sensor_id;sensor_type;location;lat;lon;timestamp;pressure;altitude;pressure_sealevel;temperature;humidity
59043;BME280;44826;51.596;5.624;2022-10-16T00:02:18;100928.47;;;11.76;89.46
59043;BME280;44826;51.596;5.624;2022-10-16T00:04:44;100936.28;;;11.76;89.94
59043;BME280;44826;51.596;5.624;2022-10-16T00:07:09;100927.66;;;11.74;90.20
59043;BME280;44826;51.596;5.624;2022-10-16T00:09:34;100928.56;;;11.73;90.22
59043;BME280;44826;51.596;5.624;2022-10-16T00:11:59;100919.91;;;11.73;90.52
59043;BME280;44826;51.596;5.624;2022-10-16T00:14:25;100921.56;;;11.75;90.23
59043;BME280;44826;51.596;5.624;2022-10-16T00:16:50;100922.50;;;11.73;90.69
59043;BME280;44826;51.596;5.624;2022-10-16T00:19:15;100929.44;;;11.74;90.50
59043;BME280;44826;51.596;5.624;2022-10-16T00:21:41;100930.31;;;11.73;90.41
59043;BME280;44826;51.596;5.624;2022-10-16T00:24:09;100925.94;;;11.73;90.62
59043;BME280;44826;51.596;5.624;2022-10-16T00:26:37;100927.72;;;11.73;90.38
59043;BME280;44826;51.596;5.624;2022-10-16T00:29:03;100922.59;;;11.69;90.54
59043;BME280;44826;51.596;5.624;2022-10-16T00:31:29;100922.59;;;11.69;90.64
59043;BME280;44826;51.596;5.624;2022-10-16T00:33:55;100932.19;;;11.69;90.72
59043;BME280;44826;51.596;5.624;2022-10-16T00:36:22;100931.38;;;11.65;90.56
59043;BME280;44826;51.596;5.624;2022-10-16T00:38:53;100923.63;;;11.64;90.91
59043;BME280;44826;51.596;5.624;2022-10-16T00:41:20;100923.66;;;11.62;90.97
59043;BME280;44826;51.596;5.624;2022-10-16T00:43:53;100928.03;;;11.62;90.83
59043;BME280;44826;51.596;5.624;2022-10-16T00:46:32;100923.75;;;11.59;91.13
59043;BME280;44826;51.596;5.624;2022-10-16T00:51:30;100929.06;;;11.56;90.70
59043;BME280;44826;51.596;5.624;2022-10-16T00:53:57;100925.63;;;11.54;91.18
59043;BME280;44826;51.596;5.624;2022-10-16T00:56:23;100932.56;;;11.55;91.04
59043;BME280;44826;51.596;5.624;2022-10-16T00:58:48;100935.16;;;11.55;90.89
59043;BME280;44826;51.596;5.624;2022-10-16T01:01:14;100933.47;;;11.54;91.04
59043;BME280;44826;51.596;5.624;2022-10-16T01:03:39;100928.25;;;11.54;90.95
59043;BME280;44826;51.596;5.624;2022-10-16T01:06:11;100935.19;;;11.53;91.22
59043;BME280;44826;51.596;5.624;2022-10-16T01:08:57;100928.31;;;11.52;91.06
59043;BME280;44826;51.596;5.624;2022-10-16T01:11:33;100922.28;;;11.50;91.08
59043;BME280;44826;51.596;5.624;2022-10-16T01:14:07;100921.41;;;11.50;91.37
59043;BME280;44826;51.596;5.624;2022-10-16T01:16:43;100921.47;;;11.48;91.25
59043;BME280;44826;51.596;5.624;2022-10-16T01:19:18;100916.25;;;11.48;91.29
59043;BME280;44826;51.596;5.624;2022-10-16T01:21:47;100917.97;;;11.48;91.32
59043;BME280;44826;51.596;5.624;2022-10-16T01:29:42;100927.59;;;11.46;91.36
59043;BME280;44826;51.596;5.624;2022-10-16T01:35:14;100934.50;;;11.47;91.53
59043;BME280;44826;51.596;5.624;2022-10-16T01:37:52;100926.69;;;11.47;91.74
59043;BME280;44826;51.596;5.624;2022-10-16T01:40:20;100933.66;;;11.46;91.74
59043;BME280;44826;51.596;5.624;2022-10-16T01:42:53;100926.69;;;11.47;91.85
59043;BME280;44826;51.596;5.624;2022-10-16T01:45:21;100931.00;;;11.48;91.72
59043;BME280;44826;51.596;5.624;2022-10-16T01:47:48;100936.22;;;11.48;91.88
59043;BME280;44826;51.596;5.624;2022-10-16T01:50:16;100932.81;;;11.46;91.95
59043;BME280;44826;51.596;5.624;2022-10-16T01:52:44;100934.50;;;11.47;92.12
59043;BME280;44826;51.596;5.624;2022-10-16T01:55:16;100929.31;;;11.47;91.93
59043;BME280;44826;51.596;5.624;2022-10-16T01:57:46;100925.81;;;11.48;91.92
59043;BME280;44826;51.596;5.624;2022-10-16T02:00:13;100925.81;;;11.48;92.04
59043;BME280;44826;51.596;5.624;2022-10-16T02:02:43;100932.72;;;11.49;92.11
59043;BME280;44826;51.596;5.624;2022-10-16T02:05:15;100936.19;;;11.49;92.19
59043;BME280;44826;51.596;5.624;2022-10-16T02:07:41;100937.09;;;11.48;92.35
59043;BME280;44826;51.596;5.624;2022-10-16T02:10:08;100933.59;;;11.49;92.02
59043;BME280;44826;51.596;5.624;2022-10-16T02:12:36;100937.09;;;11.48;91.92
59043;BME280;44826;51.596;5.624;2022-10-16T02:15:05;100934.44;;;11.50;91.84
59043;BME280;44826;51.596;5.624;2022-10-16T02:17:30;100937.94;;;11.49;91.92
59043;BME280;44826;51.596;5.624;2022-10-16T02:19:56;100933.63;;;11.48;91.69
59043;BME280;44826;51.596;5.624;2022-10-16T02:22:34;100938.81;;;11.48;92.00
59043;BME280;44826;51.596;5.624;2022-10-16T02:25:24;100942.31;;;11.48;91.58
59043;BME280;44826;51.596;5.624;2022-10-16T02:28:00;100938.81;;;11.48;91.37
59043;BME280;44826;51.596;5.624;2022-10-16T02:30:36;100928.47;;;11.46;91.40
59043;BME280;44826;51.596;5.624;2022-10-16T02:33:05;100934.63;;;11.44;91.57
59043;BME280;44826;51.596;5.624;2022-10-16T02:35:32;100929.44;;;11.42;91.57
59043;BME280;44826;51.596;5.624;2022-10-16T02:37:58;100930.34;;;11.41;91.64
59043;BME280;44826;51.596;5.624;2022-10-16T02:40:24;100927.81;;;11.38;91.57
59043;BME280;44826;51.596;5.624;2022-10-16T02:42:52;100933.91;;;11.37;91.43
59043;BME280;44826;51.596;5.624;2022-10-16T02:45:18;100936.56;;;11.35;91.26
59043;BME280;44826;51.596;5.624;2022-10-16T02:47:43;100945.28;;;11.34;91.69
59043;BME280;44826;51.596;5.624;2022-10-16T02:50:09;100940.06;;;11.34;91.52
59043;BME280;44826;51.596;5.624;2022-10-16T02:52:34;100935.75;;;11.33;91.49
59043;BME280;44826;51.596;5.624;2022-10-16T02:54:59;100929.72;;;11.31;91.21
59043;BME280;44826;51.596;5.624;2022-10-16T02:57:25;100924.53;;;11.31;91.40
59043;BME280;44826;51.596;5.624;2022-10-16T02:59:50;100921.97;;;11.30;91.51
59043;BME280;44826;51.596;5.624;2022-10-16T03:02:16;100915.88;;;11.29;91.52
59043;BME280;44826;51.596;5.624;2022-10-16T03:04:41;100919.38;;;11.28;91.32
59043;BME280;44826;51.596;5.624;2022-10-16T03:07:06;100924.59;;;11.28;91.21
59043;BME280;44826;51.596;5.624;2022-10-16T03:09:32;100932.47;;;11.27;91.23
59043;BME280;44826;51.596;5.624;2022-10-16T03:11:57;100946.38;;;11.26;91.33
59043;BME280;44826;51.596;5.624;2022-10-16T03:14:23;100949.03;;;11.24;91.41
59043;BME280;44826;51.596;5.624;2022-10-16T03:16:48;100949.03;;;11.24;91.48
59043;BME280;44826;51.596;5.624;2022-10-16T03:19:13;100950.84;;;11.20;91.57
59043;BME280;44826;51.596;5.624;2022-10-16T03:21:40;100947.34;;;11.21;91.61
59043;BME280;44826;51.596;5.624;2022-10-16T03:24:06;100944.75;;;11.21;91.75
59043;BME280;44826;51.596;5.624;2022-10-16T03:26:31;100960.44;;;11.20;91.51
59043;BME280;44826;51.596;5.624;2022-10-16T03:28:56;100969.94;;;11.21;91.61
59043;BME280;44826;51.596;5.624;2022-10-16T03:31:21;100957.81;;;11.20;91.75
59043;BME280;44826;51.596;5.624;2022-10-16T03:33:47;100964.75;;;11.21;91.44
59043;BME280;44826;51.596;5.624;2022-10-16T03:36:12;100968.25;;;11.20;91.57
59043;BME280;44826;51.596;5.624;2022-10-16T03:38:37;100969.13;;;11.19;91.70
59043;BME280;44826;51.596;5.624;2022-10-16T03:41:03;100976.94;;;11.19;91.81
59043;BME280;44826;51.596;5.624;2022-10-16T03:43:29;100971.78;;;11.17;91.80
59043;BME280;44826;51.596;5.624;2022-10-16T03:45:54;100970.03;;;11.18;91.78
59043;BME280;44826;51.596;5.624;2022-10-16T03:48:19;100971.78;;;11.17;91.96
59043;BME280;44826;51.596;5.624;2022-10-16T03:50:44;100969.19;;;11.17;92.10
59043;BME280;44826;51.596;5.624;2022-10-16T03:53:11;100973.53;;;11.17;91.96
59043;BME280;44826;51.596;5.624;2022-10-16T03:55:37;100978.72;;;11.17;91.99
59043;BME280;44826;51.596;5.624;2022-10-16T03:58:02;100977.03;;;11.16;91.92
59043;BME280;44826;51.596;5.624;2022-10-16T04:00:27;100979.63;;;11.16;91.98
59043;BME280;44826;51.596;5.624;2022-10-16T04:02:53;100980.53;;;11.15;92.10
59043;BME280;44826;51.596;5.624;2022-10-16T04:05:18;100972.75;;;11.13;92.20
59043;BME280;44826;51.596;5.624;2022-10-16T04:07:43;100972.75;;;11.13;92.41
59043;BME280;44826;51.596;5.624;2022-10-16T04:10:08;100984.00;;;11.14;92.57
59043;BME280;44826;51.596;5.624;2022-10-16T04:12:34;100982.31;;;11.13;92.71
59043;BME280;44826;51.596;5.624;2022-10-16T04:14:59;100984.00;;;11.14;92.42
59043;BME280;44826;51.596;5.624;2022-10-16T04:17:24;100984.88;;;11.14;92.57
59043;BME280;44826;51.596;5.624;2022-10-16T04:19:49;100990.94;;;11.15;92.80
59043;BME280;44826;51.596;5.624;2022-10-16T04:22:15;100989.22;;;11.14;92.76
59043;BME280;44826;51.596;5.624;2022-10-16T04:24:40;100995.31;;;11.14;92.77
59043;BME280;44826;51.596;5.624;2022-10-16T04:27:05;100988.38;;;11.13;92.55
59043;BME280;44826;51.596;5.624;2022-10-16T04:29:30;100995.31;;;11.13;92.61
59043;BME280;44826;51.596;5.624;2022-10-16T04:31:56;100997.94;;;11.13;92.61
59043;BME280;44826;51.596;5.624;2022-10-16T04:34:21;100997.09;;;11.12;92.81
59043;BME280;44826;51.596;5.624;2022-10-16T04:36:47;100995.31;;;11.13;93.14
59043;BME280;44826;51.596;5.624;2022-10-16T04:39:14;100991.81;;;11.14;92.90
59043;BME280;44826;51.596;5.624;2022-10-16T04:41:39;100991.81;;;11.14;92.62
59043;BME280;44826;51.596;5.624;2022-10-16T04:44:04;100998.75;;;11.15;93.02
59043;BME280;44826;51.596;5.624;2022-10-16T04:46:30;100995.31;;;11.14;93.23
59043;BME280;44826;51.596;5.624;2022-10-16T04:48:55;100997.84;;;11.16;92.90
59043;BME280;44826;51.596;5.624;2022-10-16T04:51:20;101011.75;;;11.16;93.16
59043;BME280;44826;51.596;5.624;2022-10-16T04:53:45;101006.53;;;11.16;93.34
59043;BME280;44826;51.596;5.624;2022-10-16T04:56:11;101016.91;;;11.18;93.33
59043;BME280;44826;51.596;5.624;2022-10-16T04:58:36;101015.19;;;11.17;93.17
59043;BME280;44826;51.596;5.624;2022-10-16T05:01:01;101016.06;;;11.17;93.30
59043;BME280;44826;51.596;5.624;2022-10-16T05:03:27;101023.88;;;11.16;93.14
59043;BME280;44826;51.596;5.624;2022-10-16T05:05:52;101024.75;;;11.16;93.18
59043;BME280;44826;51.596;5.624;2022-10-16T05:08:17;101020.44;;;11.15;93.12
59043;BME280;44826;51.596;5.624;2022-10-16T05:10:43;101024.78;;;11.15;93.17
59043;BME280;44826;51.596;5.624;2022-10-16T05:13:08;101028.34;;;11.12;93.13
59043;BME280;44826;51.596;5.624;2022-10-16T05:15:34;101029.16;;;11.13;93.16
59043;BME280;44826;51.596;5.624;2022-10-16T05:17:59;101042.19;;;11.13;93.36
59043;BME280;44826;51.596;5.624;2022-10-16T05:20:25;101049.16;;;11.12;93.26
59043;BME280;44826;51.596;5.624;2022-10-16T05:22:50;101054.38;;;11.11;93.49
59043;BME280;44826;51.596;5.624;2022-10-16T05:25:16;101047.44;;;11.11;93.35
59043;BME280;44826;51.596;5.624;2022-10-16T05:27:41;101051.78;;;11.11;92.99
59043;BME280;44826;51.596;5.624;2022-10-16T05:30:07;101049.19;;;11.11;93.66
59043;BME280;44826;51.596;5.624;2022-10-16T05:32:32;101049.19;;;11.11;93.36
59043;BME280;44826;51.596;5.624;2022-10-16T05:34:58;101055.31;;;11.10;93.47
59043;BME280;44826;51.596;5.624;2022-10-16T05:37:25;101055.31;;;11.10;93.51
59043;BME280;44826;51.596;5.624;2022-10-16T05:39:50;101063.13;;;11.08;93.53
59043;BME280;44826;51.596;5.624;2022-10-16T05:42:15;101069.22;;;11.08;93.78
59043;BME280;44826;51.596;5.624;2022-10-16T05:44:41;101077.91;;;11.07;93.73
59043;BME280;44826;51.596;5.624;2022-10-16T05:47:06;101081.34;;;11.10;93.91
59043;BME280;44826;51.596;5.624;2022-10-16T05:49:31;101094.31;;;11.11;93.77
59043;BME280;44826;51.596;5.624;2022-10-16T05:51:57;101089.94;;;11.12;94.04
59043;BME280;44826;51.596;5.624;2022-10-16T05:54:22;101103.84;;;11.12;93.95
59043;BME280;44826;51.596;5.624;2022-10-16T05:56:47;101111.59;;;11.14;93.93
59043;BME280;44826;51.596;5.624;2022-10-16T05:59:13;101115.09;;;11.14;94.17
59043;BME280;44826;51.596;5.624;2022-10-16T06:01:38;101120.28;;;11.14;94.02
59043;BME280;44826;51.596;5.624;2022-10-16T06:04:03;101127.22;;;11.15;94.10
59043;BME280;44826;51.596;5.624;2022-10-16T06:06:29;101128.06;;;11.16;94.06
59043;BME280;44826;51.596;5.624;2022-10-16T06:08:56;101126.28;;;11.18;94.28
59043;BME280;44826;51.596;5.624;2022-10-16T06:11:26;101137.56;;;11.17;94.04
59043;BME280;44826;51.596;5.624;2022-10-16T06:13:54;101135.88;;;11.16;93.95
59043;BME280;44826;51.596;5.624;2022-10-16T06:16:21;101139.34;;;11.16;93.83
59043;BME280;44826;51.596;5.624;2022-10-16T06:18:47;101143.66;;;11.16;94.00
59043;BME280;44826;51.596;5.624;2022-10-16T06:21:23;101148.88;;;11.16;93.76
59043;BME280;44826;51.596;5.624;2022-10-16T06:23:52;101147.16;;;11.15;93.87
59043;BME280;44826;51.596;5.624;2022-10-16T06:26:20;101160.25;;;11.13;93.79
59043;BME280;44826;51.596;5.624;2022-10-16T06:28:45;101150.66;;;11.14;93.84
59043;BME280;44826;51.596;5.624;2022-10-16T06:31:12;101155.03;;;11.12;93.82
59043;BME280;44826;51.596;5.624;2022-10-16T06:33:38;101161.13;;;11.11;93.91
59043;BME280;44826;51.596;5.624;2022-10-16T06:36:10;101162.84;;;11.12;94.09
59043;BME280;44826;51.596;5.624;2022-10-16T06:38:36;101169.78;;;11.13;93.96
59043;BME280;44826;51.596;5.624;2022-10-16T06:41:01;101171.50;;;11.14;94.00
59043;BME280;44826;51.596;5.624;2022-10-16T06:43:29;101180.13;;;11.16;94.06
59043;BME280;44826;51.596;5.624;2022-10-16T06:46:00;101183.56;;;11.18;94.13
59043;BME280;44826;51.596;5.624;2022-10-16T06:48:26;101187.88;;;11.19;94.36
59043;BME280;44826;51.596;5.624;2022-10-16T06:53:21;101199.06;;;11.24;94.49
59043;BME280;44826;51.596;5.624;2022-10-16T06:55:46;101199.84;;;11.28;94.43
59043;BME280;44826;51.596;5.624;2022-10-16T06:58:11;101198.91;;;11.30;94.95
59043;BME280;44826;51.596;5.624;2022-10-16T07:00:36;101196.22;;;11.35;94.30
59043;BME280;44826;51.596;5.624;2022-10-16T07:03:02;101201.38;;;11.36;94.65
59043;BME280;44826;51.596;5.624;2022-10-16T07:05:27;101216.88;;;11.41;94.53
59043;BME280;44826;51.596;5.624;2022-10-16T07:07:52;101211.56;;;11.46;94.74
59043;BME280;44826;51.596;5.624;2022-10-16T07:10:17;101214.09;;;11.50;94.75
59043;BME280;44826;51.596;5.624;2022-10-16T07:12:43;101216.53;;;11.57;94.27
59043;BME280;44826;51.596;5.624;2022-10-16T07:15:10;101216.44;;;11.61;94.41
59043;BME280;44826;51.596;5.624;2022-10-16T07:17:35;101224.09;;;11.67;94.36
59043;BME280;44826;51.596;5.624;2022-10-16T07:20:01;101220.53;;;11.72;94.47
59043;BME280;44826;51.596;5.624;2022-10-16T07:22:28;101238.66;;;11.76;93.78
59043;BME280;44826;51.596;5.624;2022-10-16T07:24:53;101238.50;;;11.82;93.57
59043;BME280;44826;51.596;5.624;2022-10-16T07:27:18;101234.06;;;11.86;94.02
59043;BME280;44826;51.596;5.624;2022-10-16T07:29:44;101246.97;;;11.92;93.89
59043;BME280;44826;51.596;5.624;2022-10-16T07:32:09;101255.56;;;11.96;93.52
59043;BME280;44826;51.596;5.624;2022-10-16T07:34:34;101258.06;;;12.01;93.53
59043;BME280;44826;51.596;5.624;2022-10-16T07:36:59;101264.94;;;12.05;93.15
59043;BME280;44826;51.596;5.624;2022-10-16T07:39:25;101269.19;;;12.09;92.97
59043;BME280;44826;51.596;5.624;2022-10-16T07:41:50;101276.00;;;12.13;92.94
59043;BME280;44826;51.596;5.624;2022-10-16T07:44:15;101277.72;;;12.16;93.15
59043;BME280;44826;51.596;5.624;2022-10-16T07:46:41;101279.38;;;12.18;92.82
59043;BME280;44826;51.596;5.624;2022-10-16T07:49:06;101287.06;;;12.23;92.76
59043;BME280;44826;51.596;5.624;2022-10-16T07:51:31;101289.59;;;12.27;92.58
59043;BME280;44826;51.596;5.624;2022-10-16T07:53:57;101293.81;;;12.32;92.53
59043;BME280;44826;51.596;5.624;2022-10-16T07:56:22;101297.16;;;12.37;92.80
59043;BME280;44826;51.596;5.624;2022-10-16T07:58:48;101287.47;;;12.42;92.52
59043;BME280;44826;51.596;5.624;2022-10-16T08:01:15;101297.78;;;12.47;92.95
59043;BME280;44826;51.596;5.624;2022-10-16T08:03:46;101298.47;;;12.53;92.64
59043;BME280;44826;51.596;5.624;2022-10-16T08:06:12;101303.53;;;12.59;92.13
59043;BME280;44826;51.596;5.624;2022-10-16T08:08:37;101299.94;;;12.64;91.98
59043;BME280;44826;51.596;5.624;2022-10-16T08:11:02;101311.97;;;12.69;92.24
59043;BME280;44826;51.596;5.624;2022-10-16T08:13:31;101317.91;;;12.74;91.57
59043;BME280;44826;51.596;5.624;2022-10-16T08:15:56;101316.09;;;12.78;90.84
59043;BME280;44826;51.596;5.624;2022-10-16T08:18:22;101321.19;;;12.83;91.24
59043;BME280;44826;51.596;5.624;2022-10-16T08:20:47;101331.56;;;12.86;90.30
59043;BME280;44826;51.596;5.624;2022-10-16T08:23:12;101329.69;;;12.89;90.17
59043;BME280;44826;51.596;5.624;2022-10-16T08:25:39;101332.19;;;12.94;89.89
59043;BME280;44826;51.596;5.624;2022-10-16T08:28:06;101342.53;;;12.97;89.51
59043;BME280;44826;51.596;5.624;2022-10-16T08:30:31;101341.59;;;13.00;89.87
59043;BME280;44826;51.596;5.624;2022-10-16T08:32:57;101341.50;;;13.03;89.38
59043;BME280;44826;51.596;5.624;2022-10-16T08:35:23;101348.31;;;13.09;89.24
59043;BME280;44826;51.596;5.624;2022-10-16T08:37:48;101347.34;;;13.13;89.12
59043;BME280;44826;51.596;5.624;2022-10-16T08:40:25;101351.53;;;13.18;89.36
59043;BME280;44826;51.596;5.624;2022-10-16T08:43:07;101361.00;;;13.23;88.72
59043;BME280;44826;51.596;5.624;2022-10-16T08:45:55;101363.38;;;13.30;88.82
59043;BME280;44826;51.596;5.624;2022-10-16T08:48:30;101378.81;;;13.40;88.81
59043;BME280;44826;51.596;5.624;2022-10-16T08:51:01;101370.88;;;13.44;87.67
59043;BME280;44826;51.596;5.624;2022-10-16T08:53:41;101370.78;;;13.47;88.28
59043;BME280;44826;51.596;5.624;2022-10-16T08:56:09;101372.38;;;13.51;87.92
59043;BME280;44826;51.596;5.624;2022-10-16T08:58:34;101382.75;;;13.55;87.90
59043;BME280;44826;51.596;5.624;2022-10-16T09:01:04;101377.44;;;13.58;87.54
59043;BME280;44826;51.596;5.624;2022-10-16T09:06:46;101384.22;;;13.65;87.67
59043;BME280;44826;51.596;5.624;2022-10-16T09:11:55;101390.94;;;13.72;86.43
59043;BME280;44826;51.596;5.624;2022-10-16T09:17:58;101399.53;;;13.77;85.50
59043;BME280;44826;51.596;5.624;2022-10-16T09:20:30;101402.06;;;13.80;85.08
59043;BME280;44826;51.596;5.624;2022-10-16T09:23:27;101409.78;;;13.84;85.00
59043;BME280;44826;51.596;5.624;2022-10-16T09:25:54;101410.50;;;13.89;84.68
59043;BME280;44826;51.596;5.624;2022-10-16T09:28:20;101407.75;;;13.93;85.01
59043;BME280;44826;51.596;5.624;2022-10-16T09:30:46;101411.06;;;13.99;84.94
59043;BME280;44826;51.596;5.624;2022-10-16T09:33:13;101414.44;;;14.02;83.61
59043;BME280;44826;51.596;5.624;2022-10-16T09:35:45;101423.09;;;14.04;84.12
59043;BME280;44826;51.596;5.624;2022-10-16T09:38:28;101416.06;;;14.06;83.45
59043;BME280;44826;51.596;5.624;2022-10-16T09:40:55;101420.31;;;14.10;82.36
59043;BME280;44826;51.596;5.624;2022-10-16T09:43:52;101412.31;;;14.15;83.41
59043;BME280;44826;51.596;5.624;2022-10-16T09:46:31;101412.97;;;14.22;82.40
59043;BME280;44826;51.596;5.624;2022-10-16T09:49:03;101419.00;;;14.24;81.97
59043;BME280;44826;51.596;5.624;2022-10-16T09:51:37;101419.75;;;14.27;81.17
59043;BME280;44826;51.596;5.624;2022-10-16T09:54:14;101413.69;;;14.27;82.15
59043;BME280;44826;51.596;5.624;2022-10-16T09:56:40;101418.84;;;14.30;81.10
59043;BME280;44826;51.596;5.624;2022-10-16T09:59:14;101423.81;;;14.38;82.82
59043;BME280;44826;51.596;5.624;2022-10-16T10:04:10;101433.94;;;14.49;80.17
59043;BME280;44826;51.596;5.624;2022-10-16T10:06:40;101432.13;;;14.51;78.39
59043;BME280;44826;51.596;5.624;2022-10-16T10:09:16;101423.25;;;14.55;79.11
59043;BME280;44826;51.596;5.624;2022-10-16T10:14:27;101431.06;;;14.56;78.78
59043;BME280;44826;51.596;5.624;2022-10-16T10:19:48;101438.56;;;14.67;78.99
59043;BME280;44826;51.596;5.624;2022-10-16T10:30:27;101453.38;;;14.95;79.14
59043;BME280;44826;51.596;5.624;2022-10-16T10:36:21;101460.00;;;15.06;78.50
59043;BME280;44826;51.596;5.624;2022-10-16T10:44:53;101453.84;;;15.07;76.93
59043;BME280;44826;51.596;5.624;2022-10-16T10:50:48;101463.22;;;15.14;77.32
59043;BME280;44826;51.596;5.624;2022-10-16T10:53:38;101460.53;;;15.15;76.98
59043;BME280;44826;51.596;5.624;2022-10-16T11:01:55;101462.41;;;15.12;74.25
59043;BME280;44826;51.596;5.624;2022-10-16T11:04:37;101464.94;;;15.15;76.01
59043;BME280;44826;51.596;5.624;2022-10-16T11:07:16;101462.16;;;15.20;75.05
59043;BME280;44826;51.596;5.624;2022-10-16T11:09:50;101470.81;;;15.22;74.09
59043;BME280;44826;51.596;5.624;2022-10-16T11:15:12;101474.00;;;15.30;74.61
59043;BME280;44826;51.596;5.624;2022-10-16T11:17:47;101473.91;;;15.33;71.82
59043;BME280;44826;51.596;5.624;2022-10-16T11:22:48;101475.34;;;15.42;69.19
59043;BME280;44826;51.596;5.624;2022-10-16T11:25:30;101472.53;;;15.46;70.68
59043;BME280;44826;51.596;5.624;2022-10-16T11:31:16;101467.09;;;15.53;71.40
59043;BME280;44826;51.596;5.624;2022-10-16T11:33:52;101473.41;;;15.47;70.31
59043;BME280;44826;51.596;5.624;2022-10-16T11:36:36;101475.25;;;15.45;71.28
59043;BME280;44826;51.596;5.624;2022-10-16T11:41:40;101481.06;;;15.53;69.46
59043;BME280;44826;51.596;5.624;2022-10-16T11:46:37;101484.25;;;15.61;67.55
59043;BME280;44826;51.596;5.624;2022-10-16T11:49:34;101490.19;;;15.67;70.97
59043;BME280;44826;51.596;5.624;2022-10-16T11:57:29;101502.72;;;15.58;72.14
59043;BME280;44826;51.596;5.624;2022-10-16T12:05:06;101500.09;;;15.58;68.53
59043;BME280;44826;51.596;5.624;2022-10-16T12:07:41;101498.28;;;15.60;67.09
59043;BME280;44826;51.596;5.624;2022-10-16T12:10:27;101493.00;;;15.62;68.96
59043;BME280;44826;51.596;5.624;2022-10-16T12:12:53;101478.94;;;15.63;67.46
59043;BME280;44826;51.596;5.624;2022-10-16T12:15:26;101486.47;;;15.72;67.56
59043;BME280;44826;51.596;5.624;2022-10-16T12:17:53;101494.00;;;15.82;67.50
59043;BME280;44826;51.596;5.624;2022-10-16T12:20:20;101494.53;;;15.91;67.03
59043;BME280;44826;51.596;5.624;2022-10-16T12:23:21;101498.44;;;16.05;69.30
59043;BME280;44826;51.596;5.624;2022-10-16T12:25:58;101498.56;;;16.24;66.28
59043;BME280;44826;51.596;5.624;2022-10-16T12:28:29;101504.72;;;16.45;66.93
59043;BME280;44826;51.596;5.624;2022-10-16T12:30:58;101500.44;;;16.65;67.03
59043;BME280;44826;51.596;5.624;2022-10-16T12:33:26;101495.59;;;16.76;65.00
59043;BME280;44826;51.596;5.624;2022-10-16T12:35:53;101491.88;;;16.82;65.05
59043;BME280;44826;51.596;5.624;2022-10-16T12:38:22;101491.56;;;16.90;64.42
59043;BME280;44826;51.596;5.624;2022-10-16T12:40:59;101493.03;;;16.97;65.06
59043;BME280;44826;51.596;5.624;2022-10-16T12:43:37;101499.25;;;16.94;64.75
59043;BME280;44826;51.596;5.624;2022-10-16T12:48:34;101492.81;;;16.81;64.30
59043;BME280;44826;51.596;5.624;2022-10-16T12:51:11;101491.63;;;16.88;65.20
59043;BME280;44826;51.596;5.624;2022-10-16T12:53:36;101494.63;;;17.01;62.63
59043;BME280;44826;51.596;5.624;2022-10-16T12:56:16;101476.34;;;17.19;63.88
59043;BME280;44826;51.596;5.624;2022-10-16T12:58:55;101493.03;;;17.38;62.52
59043;BME280;44826;51.596;5.624;2022-10-16T13:07:15;101493.72;;;17.63;63.01
59043;BME280;44826;51.596;5.624;2022-10-16T13:18:14;101483.66;;;17.52;61.47
59043;BME280;44826;51.596;5.624;2022-10-16T13:20:56;101489.31;;;17.42;62.45
59043;BME280;44826;51.596;5.624;2022-10-16T13:23:59;101493.28;;;17.32;62.79
59043;BME280;44826;51.596;5.624;2022-10-16T13:26:44;101499.75;;;17.25;63.42
59043;BME280;44826;51.596;5.624;2022-10-16T13:29:12;101493.16;;;17.14;60.52
59043;BME280;44826;51.596;5.624;2022-10-16T13:31:38;101498.84;;;17.05;62.10
59043;BME280;44826;51.596;5.624;2022-10-16T13:34:05;101497.28;;;16.99;63.79
59043;BME280;44826;51.596;5.624;2022-10-16T13:36:42;101500.13;;;16.95;62.38
59043;BME280;44826;51.596;5.624;2022-10-16T13:42:04;101509.06;;;16.91;64.47
59043;BME280;44826;51.596;5.624;2022-10-16T13:44:31;101515.97;;;16.92;66.17
59043;BME280;44826;51.596;5.624;2022-10-16T13:47:01;101519.69;;;16.88;64.07
59043;BME280;44826;51.596;5.624;2022-10-16T13:49:27;101512.63;;;16.88;64.72
59043;BME280;44826;51.596;5.624;2022-10-16T13:51:58;101521.41;;;16.89;63.85
59043;BME280;44826;51.596;5.624;2022-10-16T13:54:27;101516.25;;;16.86;63.71
59043;BME280;44826;51.596;5.624;2022-10-16T13:56:56;101512.03;;;16.81;63.93
59043;BME280;44826;51.596;5.624;2022-10-16T13:59:26;101512.13;;;16.80;64.07
59043;BME280;44826;51.596;5.624;2022-10-16T14:01:56;101512.97;;;16.80;64.53
59043;BME280;44826;51.596;5.624;2022-10-16T14:04:23;101510.34;;;16.80;63.81
59043;BME280;44826;51.596;5.624;2022-10-16T14:06:50;101511.91;;;16.84;64.12
59043;BME280;44826;51.596;5.624;2022-10-16T14:09:23;101515.97;;;16.92;64.59
59043;BME280;44826;51.596;5.624;2022-10-16T14:11:53;101524.56;;;16.97;65.06
59043;BME280;44826;51.596;5.624;2022-10-16T14:14:19;101519.91;;;17.04;65.47
59043;BME280;44826;51.596;5.624;2022-10-16T14:16:45;101517.94;;;17.09;64.00
59043;BME280;44826;51.596;5.624;2022-10-16T14:19:30;101512.63;;;17.10;65.84
59043;BME280;44826;51.596;5.624;2022-10-16T14:21:56;101520.50;;;17.10;64.58
59043;BME280;44826;51.596;5.624;2022-10-16T14:26:54;101520.91;;;17.01;66.26
59043;BME280;44826;51.596;5.624;2022-10-16T14:29:22;101519.69;;;16.88;65.43
59043;BME280;44826;51.596;5.624;2022-10-16T14:31:59;101506.78;;;16.81;65.65
59043;BME280;44826;51.596;5.624;2022-10-16T14:34:33;101516.50;;;16.79;66.05
59043;BME280;44826;51.596;5.624;2022-10-16T14:37:09;101514.91;;;16.75;66.30
59043;BME280;44826;51.596;5.624;2022-10-16T14:39:39;101508.03;;;16.73;67.03
59043;BME280;44826;51.596;5.624;2022-10-16T14:42:14;101517.69;;;16.72;67.46
59043;BME280;44826;51.596;5.624;2022-10-16T14:44:40;101504.69;;;16.69;67.01